Time;durP1;ratioP1;P1;durP2;ratioP2;P2;SDS_P1;SDS_P2;PMS_P1;PMS_P2;Temp;Humidity;BMP_temperature;BMP_pressure;BME280_temperature;BME280_humidity;BME280_pressure;Samples;Min_cycle;Max_cycle;Signal;HPM_P1;HPM_P2
2021/03/23 00:01:56;;;;;;;10.07;5.13;;;3.60;99.90;;;;;;5056078;28;20180;-60
2021/03/23 00:04:22;;;;;;;9.73;5.53;;;3.50;99.90;;;;;;5055812;28;20166;-56
2021/03/23 00:06:47;;;;;;;8.23;4.43;;;3.50;99.90;;;;;;5056246;28;20516;-52
2021/03/23 00:09:13;;;;;;;11.70;5.13;;;3.40;99.90;;;;;;5056031;28;20178;-57
2021/03/23 00:11:41;;;;;;;8.97;4.90;;;3.30;99.90;;;;;;5054195;28;20179;-51
2021/03/23 00:14:12;;;;;;;8.00;5.00;;;3.30;99.90;;;;;;5075049;28;20269;-56
2021/03/23 00:16:40;;;;;;;7.83;5.20;;;3.30;99.90;;;;;;5075446;28;20191;-54
2021/03/23 00:19:08;;;;;;;10.63;5.33;;;3.30;99.90;;;;;;5064974;28;20179;-60
2021/03/23 00:21:34;;;;;;;11.27;5.30;;;3.30;99.90;;;;;;5054325;28;20198;-56
2021/03/23 00:24:00;;;;;;;10.33;5.13;;;3.40;99.90;;;;;;5055029;28;20198;-53
2021/03/23 00:26:26;;;;;;;9.27;4.50;;;3.40;99.90;;;;;;5055117;28;20191;-58
2021/03/23 00:28:54;;;;;;;9.40;4.87;;;3.30;99.90;;;;;;5068618;28;20174;-56
2021/03/23 00:31:23;;;;;;;12.47;4.90;;;3.30;99.90;;;;;;5075262;28;20174;-55
2021/03/23 00:33:48;;;;;;;9.40;4.83;;;3.30;99.90;;;;;;5058469;28;20246;-54
2021/03/23 00:36:20;;;;;;;8.20;5.03;;;3.20;99.90;;;;;;5055039;28;20296;-58
2021/03/23 00:38:46;;;;;;;12.13;5.37;;;3.30;99.90;;;;;;5070192;28;20182;-55
2021/03/23 00:41:12;;;;;;;10.03;5.37;;;3.30;99.90;;;;;;5074792;28;20198;-59
2021/03/23 00:43:40;;;;;;;7.40;4.60;;;3.30;99.90;;;;;;5061829;28;20171;-57
2021/03/23 00:46:06;;;;;;;7.70;4.67;;;3.30;99.90;;;;;;5054563;28;20675;-59
2021/03/23 00:48:32;;;;;;;6.67;4.33;;;3.30;99.90;;;;;;5055579;28;20258;-55
2021/03/23 00:50:57;;;;;;;12.53;5.27;;;3.20;99.90;;;;;;5054920;28;20213;-55
2021/03/23 00:53:23;;;;;;;10.60;4.80;;;3.30;99.90;;;;;;5064565;28;20189;-56
2021/03/23 00:55:49;;;;;;;11.70;5.03;;;3.30;99.90;;;;;;5074626;28;20194;-51
2021/03/23 00:58:15;;;;;;;9.17;4.93;;;3.30;99.90;;;;;;5074731;28;20178;-53
2021/03/23 01:00:41;;;;;;;10.23;4.40;;;3.40;99.90;;;;;;5073838;28;20711;-54
2021/03/23 01:03:06;;;;;;;9.70;4.73;;;3.40;99.90;;;;;;5067444;28;20181;-59
2021/03/23 01:05:34;;;;;;;8.20;4.87;;;3.50;99.90;;;;;;5053940;28;20199;-59
2021/03/23 01:07:59;;;;;;;9.70;5.00;;;3.50;99.90;;;;;;5059720;28;20262;-55
2021/03/23 01:10:27;;;;;;;8.07;4.47;;;3.70;99.90;;;;;;5075372;28;20262;-55
2021/03/23 01:12:53;;;;;;;8.20;4.40;;;3.80;99.90;;;;;;5072802;28;20179;-54
2021/03/23 01:15:22;;;;;;;8.83;4.70;;;3.80;99.90;;;;;;5073983;28;20255;-57
2021/03/23 01:17:47;;;;;;;9.43;4.67;;;3.90;99.90;;;;;;5068412;28;20182;-59
2021/03/23 01:20:15;;;;;;;7.90;5.17;;;3.90;99.90;;;;;;5070321;28;20202;-55
2021/03/23 01:22:41;;;;;;;7.17;4.30;;;4.00;99.90;;;;;;5074003;28;20270;-55
2021/03/23 01:25:08;;;;;;;8.53;4.83;;;4.10;99.90;;;;;;5058878;28;20669;-60
2021/03/23 01:27:33;;;;;;;7.50;4.40;;;4.20;99.90;;;;;;5058719;28;20206;-55
2021/03/23 01:29:59;;;;;;;7.67;4.67;;;4.20;99.90;;;;;;5058239;28;20171;-58
2021/03/23 01:32:25;;;;;;;8.13;4.17;;;4.20;99.90;;;;;;5058732;28;20206;-59
2021/03/23 01:34:51;;;;;;;10.63;4.67;;;4.30;99.90;;;;;;5057765;28;20237;-57
2021/03/23 01:37:17;;;;;;;9.10;4.37;;;4.40;99.90;;;;;;5058961;28;20226;-59
2021/03/23 01:39:43;;;;;;;7.03;4.20;;;4.40;99.90;;;;;;5059847;28;20286;-55
2021/03/23 01:42:11;;;;;;;7.33;4.30;;;4.40;99.90;;;;;;5058945;28;20180;-60
2021/03/23 01:44:42;;;;;;;10.50;4.50;;;4.50;99.90;;;;;;5057783;28;20690;-53
2021/03/23 01:47:08;;;;;;;10.53;4.60;;;4.40;99.90;;;;;;5058390;28;20492;-58
2021/03/23 01:49:45;;;;;;;9.20;4.50;;;4.50;99.90;;;;;;5058846;28;20182;-55
2021/03/23 01:52:18;;;;;;;9.60;4.47;;;4.50;99.90;;;;;;5062909;28;20661;-59
2021/03/23 01:55:01;;;;;;;7.70;4.40;;;4.40;99.90;;;;;;5079680;28;20212;-60
2021/03/23 01:57:28;;;;;;;7.93;4.30;;;4.40;99.90;;;;;;5079566;28;20166;-59
2021/03/23 01:59:56;;;;;;;11.37;4.47;;;4.40;99.90;;;;;;5078376;28;20237;-60
2021/03/23 02:02:25;;;;;;;7.77;4.00;;;4.40;99.90;;;;;;5071039;28;20242;-57
2021/03/23 02:04:50;;;;;;;10.27;4.40;;;4.40;99.90;;;;;;5057893;28;20563;-55
2021/03/23 02:07:16;;;;;;;12.83;4.90;;;4.40;99.90;;;;;;5063461;28;20185;-60
2021/03/23 02:09:41;;;;;;;9.30;4.27;;;4.40;99.90;;;;;;5057512;28;20183;-55
2021/03/23 02:12:16;;;;;;;8.40;4.47;;;4.40;99.90;;;;;;5058348;28;20563;-56
2021/03/23 02:14:47;;;;;;;8.20;4.93;;;4.30;99.90;;;;;;5067843;28;20204;-58
2021/03/23 02:17:22;;;;;;;9.50;4.77;;;4.20;99.90;;;;;;5068221;28;20170;-58
2021/03/23 02:19:50;;;;;;;9.10;4.60;;;4.20;99.90;;;;;;5066276;28;20289;-54
2021/03/23 02:22:22;;;;;;;8.70;4.23;;;4.30;99.90;;;;;;5074279;28;20174;-53
2021/03/23 02:24:48;;;;;;;8.67;4.10;;;4.30;99.90;;;;;;5078982;28;20174;-53
2021/03/23 02:27:14;;;;;;;8.10;4.43;;;4.30;99.90;;;;;;5074743;28;20191;-59
2021/03/23 02:29:39;;;;;;;9.13;4.53;;;4.30;99.90;;;;;;5079562;28;20210;-59
2021/03/23 02:32:06;;;;;;;10.13;4.87;;;4.20;99.90;;;;;;5067442;28;20171;-58
2021/03/23 02:34:31;;;;;;;9.93;4.60;;;4.20;99.90;;;;;;5054995;28;20575;-53
2021/03/23 02:36:57;;;;;;;8.37;4.70;;;4.20;99.90;;;;;;5058683;28;20283;-56
2021/03/23 02:39:29;;;;;;;8.23;3.77;;;4.20;99.90;;;;;;5037486;28;20574;-57
2021/03/23 02:41:56;;;;;;;9.73;4.97;;;4.10;99.90;;;;;;5056993;28;20159;-53
2021/03/23 02:44:22;;;;;;;7.43;4.50;;;4.20;99.90;;;;;;5058047;28;20538;-60
2021/03/23 02:46:48;;;;;;;10.57;4.57;;;4.10;99.90;;;;;;5057490;28;20270;-51
2021/03/23 02:49:15;;;;;;;5.80;4.30;;;4.00;99.90;;;;;;5056647;28;20556;-59
2021/03/23 02:51:41;;;;;;;6.23;4.30;;;4.10;99.90;;;;;;5056202;28;20542;-59
2021/03/23 02:54:07;;;;;;;7.93;4.87;;;4.00;99.90;;;;;;5056842;28;20179;-54
2021/03/23 02:56:33;;;;;;;10.27;5.03;;;4.00;99.90;;;;;;5057492;28;20286;-55
2021/03/23 02:58:58;;;;;;;9.10;4.90;;;4.00;99.90;;;;;;5057789;28;20174;-58
2021/03/23 03:01:24;;;;;;;9.80;5.33;;;3.90;99.90;;;;;;5058499;28;20195;-57
2021/03/23 03:03:50;;;;;;;7.43;5.00;;;3.90;99.90;;;;;;5056034;28;20194;-57
2021/03/23 03:06:16;;;;;;;8.87;4.50;;;4.00;99.90;;;;;;5057402;28;20191;-57
2021/03/23 03:08:42;;;;;;;10.00;5.20;;;4.00;99.90;;;;;;5056448;28;20264;-55
2021/03/23 03:11:08;;;;;;;8.73;4.93;;;4.10;99.90;;;;;;5055762;28;20190;-53
2021/03/23 03:13:34;;;;;;;8.00;4.77;;;4.10;99.90;;;;;;5056939;28;20178;-55
2021/03/23 03:16:00;;;;;;;9.07;4.70;;;4.20;99.90;;;;;;5056102;28;20199;-57
2021/03/23 03:18:27;;;;;;;10.27;5.00;;;4.20;99.90;;;;;;5056618;28;20701;-53
2021/03/23 03:20:56;;;;;;;8.47;5.50;;;4.10;99.90;;;;;;5069969;28;20194;-57
2021/03/23 03:23:21;;;;;;;8.33;5.67;;;4.20;99.90;;;;;;5058157;28;20225;-58
2021/03/23 03:25:48;;;;;;;8.17;4.80;;;4.20;99.90;;;;;;5065431;28;20190;-56
2021/03/23 03:28:14;;;;;;;10.50;5.30;;;4.20;99.90;;;;;;5056069;28;20195;-55
2021/03/23 03:30:41;;;;;;;11.40;5.47;;;4.20;99.90;;;;;;5072188;28;20269;-52
2021/03/23 03:33:09;;;;;;;9.63;5.53;;;4.30;99.90;;;;;;5077471;28;20171;-60
2021/03/23 03:35:37;;;;;;;9.50;5.23;;;4.30;99.90;;;;;;5070505;28;20202;-58
2021/03/23 03:38:04;;;;;;;8.40;5.13;;;4.30;99.90;;;;;;5055137;28;20183;-59
2021/03/23 03:40:36;;;;;;;12.93;5.83;;;4.20;99.90;;;;;;5055339;28;20209;-59
2021/03/23 03:43:02;;;;;;;10.50;5.23;;;3.90;99.90;;;;;;5055082;28;20175;-56
2021/03/23 03:45:28;;;;;;;9.87;5.50;;;3.80;99.90;;;;;;5065257;28;20278;-58
2021/03/23 03:47:55;;;;;;;9.27;5.50;;;3.90;99.90;;;;;;5076775;28;20202;-52
2021/03/23 03:50:23;;;;;;;11.70;6.30;;;4.00;99.90;;;;;;5064501;28;20229;-57
2021/03/23 03:52:50;;;;;;;10.37;5.43;;;4.10;99.90;;;;;;5061593;28;20179;-57
2021/03/23 03:55:19;;;;;;;8.47;5.40;;;4.10;99.90;;;;;;5069583;28;20225;-59
2021/03/23 03:57:44;;;;;;;9.57;5.53;;;4.10;99.90;;;;;;5075495;28;20190;-59
2021/03/23 04:00:12;;;;;;;8.57;5.90;;;4.10;99.90;;;;;;5076487;28;20202;-53
2021/03/23 04:02:38;;;;;;;10.37;6.03;;;4.00;99.90;;;;;;5074099;28;20163;-53
2021/03/23 04:05:05;;;;;;;8.67;5.53;;;4.00;99.90;;;;;;5075122;28;20198;-59
2021/03/23 04:07:31;;;;;;;8.33;5.93;;;4.00;99.90;;;;;;5076493;28;20174;-58
2021/03/23 04:09:57;;;;;;;10.83;5.97;;;4.10;99.90;;;;;;5074125;28;20175;-54
2021/03/23 04:12:22;;;;;;;11.03;5.97;;;4.10;99.90;;;;;;5055757;28;20179;-60
2021/03/23 04:14:48;;;;;;;9.87;5.60;;;4.00;99.90;;;;;;5054992;28;20171;-60
2021/03/23 04:17:13;;;;;;;9.73;5.03;;;4.10;99.90;;;;;;5055330;28;20190;-59
2021/03/23 04:19:39;;;;;;;10.53;5.53;;;4.00;99.90;;;;;;5057455;28;20547;-55
2021/03/23 04:22:05;;;;;;;13.03;5.77;;;3.90;99.90;;;;;;5054173;28;20663;-54
2021/03/23 04:24:30;;;;;;;10.53;5.23;;;3.80;99.90;;;;;;5056441;28;20250;-52
2021/03/23 04:26:56;;;;;;;10.43;5.20;;;3.70;99.90;;;;;;5054761;28;20183;-59
2021/03/23 04:29:21;;;;;;;11.40;5.07;;;3.70;99.90;;;;;;5054925;28;20167;-52
2021/03/23 04:31:47;;;;;;;10.80;5.23;;;3.80;99.90;;;;;;5053947;28;20178;-57
2021/03/23 04:34:14;;;;;;;9.37;5.43;;;3.90;99.90;;;;;;5055475;28;20183;-58
2021/03/23 04:36:40;;;;;;;12.53;5.70;;;3.90;99.90;;;;;;5055699;28;20230;-55
2021/03/23 04:39:10;;;;;;;7.73;5.10;;;4.00;99.90;;;;;;5055304;28;20194;-54
2021/03/23 04:41:37;;;;;;;17.80;14.13;;;4.00;99.90;;;;;;5065949;28;20700;-57
2021/03/23 04:44:03;;;;;;;8.93;5.37;;;3.90;99.90;;;;;;5061164;28;20171;-59
2021/03/23 04:46:30;;;;;;;7.13;5.03;;;3.90;99.90;;;;;;5063929;28;20765;-55
2021/03/23 04:48:56;;;;;;;12.40;5.40;;;4.00;99.90;;;;;;5074613;28;20213;-57
2021/03/23 04:51:24;;;;;;;10.43;5.57;;;4.00;99.90;;;;;;5072996;28;20202;-57
2021/03/23 04:53:56;;;;;;;8.53;4.70;;;4.00;99.90;;;;;;5075123;28;20246;-52
2021/03/23 04:56:28;;;;;;;9.10;4.93;;;3.80;99.90;;;;;;5067061;28;20206;-56
2021/03/23 04:58:54;;;;;;;9.83;5.80;;;3.70;99.90;;;;;;5054554;28;20182;-58
2021/03/23 05:01:20;;;;;;;9.90;5.60;;;3.80;99.90;;;;;;5055567;28;20543;-59
2021/03/23 05:03:46;;;;;;;8.37;5.00;;;3.80;99.90;;;;;;5055195;28;20409;-59
2021/03/23 05:06:12;;;;;;;8.87;5.00;;;3.70;99.90;;;;;;5059323;28;20190;-55
2021/03/23 05:08:42;;;;;;;10.13;4.90;;;3.70;99.90;;;;;;5075557;28;20685;-58
2021/03/23 05:11:08;;;;;;;11.50;5.60;;;3.70;99.90;;;;;;5061068;28;20186;-60
2021/03/23 05:13:34;;;;;;;7.93;5.10;;;3.80;99.90;;;;;;5057239;28;20428;-59
2021/03/23 05:15:59;;;;;;;8.90;5.23;;;3.90;99.90;;;;;;5058412;28;20209;-58
2021/03/23 05:18:26;;;;;;;11.27;5.27;;;3.90;99.90;;;;;;5059002;28;20526;-60
2021/03/23 05:20:52;;;;;;;9.23;5.13;;;4.00;99.90;;;;;;5063039;28;20200;-60
2021/03/23 05:23:19;;;;;;;9.13;5.47;;;4.10;99.90;;;;;;5060914;28;20171;-52
2021/03/23 05:25:45;;;;;;;7.60;5.07;;;4.20;99.90;;;;;;5062662;28;20278;-60
2021/03/23 05:28:11;;;;;;;9.07;5.00;;;4.20;99.90;;;;;;5056807;28;20171;-59
2021/03/23 05:30:38;;;;;;;8.20;5.10;;;4.20;99.90;;;;;;5054929;28;20179;-57
2021/03/23 05:33:05;;;;;;;11.27;5.43;;;4.30;99.90;;;;;;5060488;28;20177;-58
2021/03/23 05:35:30;;;;;;;7.73;4.97;;;4.20;99.90;;;;;;5075430;28;20217;-52
2021/03/23 05:37:56;;;;;;;8.27;4.87;;;4.10;99.90;;;;;;5067776;28;20187;-59
2021/03/23 05:40:24;;;;;;;8.53;5.20;;;4.20;99.90;;;;;;5054756;28;20689;-59
2021/03/23 05:43:22;;;;;;;8.43;5.10;;;4.20;99.90;;;;;;5059630;28;20537;-58
2021/03/23 05:45:52;;;;;;;11.93;5.30;;;4.40;99.90;;;;;;5071138;28;20234;-59
2021/03/23 05:48:21;;;;;;;9.60;5.00;;;4.30;99.90;;;;;;5057849;28;20171;-56
2021/03/23 05:50:53;;;;;;;9.33;5.30;;;4.30;99.90;;;;;;5053308;28;20178;-52
2021/03/23 05:53:33;;;;;;;11.53;5.00;;;4.40;99.90;;;;;;5069147;28;20193;-56
2021/03/23 05:56:02;;;;;;;9.57;5.37;;;4.50;99.90;;;;;;5074805;28;20216;-60
2021/03/23 05:58:33;;;;;;;9.70;5.10;;;4.50;99.90;;;;;;5073056;28;20187;-58
2021/03/23 06:01:19;;;;;;;8.83;5.37;;;4.40;99.90;;;;;;5062318;28;20198;-56
2021/03/23 06:03:47;;;;;;;10.10;4.97;;;4.50;99.90;;;;;;5053080;28;20179;-54
2021/03/23 06:06:40;;;;;;;8.07;5.13;;;4.50;99.90;;;;;;5061219;28;20191;-59
2021/03/23 06:09:09;;;;;;;9.17;4.77;;;4.40;99.90;;;;;;5057403;28;20514;-60
2021/03/23 06:11:44;;;;;;;8.93;4.97;;;4.40;99.90;;;;;;5056350;28;20597;-59
2021/03/23 06:14:28;;;;;;;9.00;5.00;;;4.50;99.90;;;;;;5055569;28;20190;-52
2021/03/23 06:17:20;;;;;;;9.90;5.10;;;4.70;99.90;;;;;;5055472;28;20187;-53
2021/03/23 06:20:14;;;;;;;14.40;10.17;;;4.80;99.90;;;;;;5056367;28;20179;-59
2021/03/23 06:22:56;;;;;;;11.27;8.50;;;4.90;99.90;;;;;;5071753;28;20181;-60
2021/03/23 06:25:33;;;;;;;10.63;6.57;;;4.90;99.90;;;;;;5065108;28;20566;-59
2021/03/23 06:28:18;;;;;;;15.17;8.50;;;4.70;99.90;;;;;;5057376;28;20171;-57
2021/03/23 06:31:02;;;;;;;10.70;6.20;;;4.50;99.90;;;;;;5069716;28;20174;-59
2021/03/23 06:33:30;;;;;;;11.53;5.43;;;4.40;99.90;;;;;;5062935;28;20206;-58
2021/03/23 06:36:02;;;;;;;7.97;5.10;;;4.30;99.90;;;;;;5064624;28;20667;-58
2021/03/23 06:38:34;;;;;;;9.13;5.83;;;4.50;99.90;;;;;;5057809;28;20573;-61
2021/03/23 06:41:23;;;;;;;10.37;5.90;;;4.50;99.90;;;;;;5062613;28;20293;-60
2021/03/23 06:43:51;;;;;;;10.27;6.27;;;4.50;99.90;;;;;;5054558;28;20163;-62
2021/03/23 06:46:24;;;;;;;12.57;5.87;;;4.50;99.90;;;;;;5062761;28;20868;-60
2021/03/23 06:49:00;;;;;;;8.70;5.57;;;4.40;99.90;;;;;;5057350;28;20708;-56
2021/03/23 06:51:25;;;;;;;10.87;5.43;;;4.30;99.90;;;;;;5061499;28;20190;-61
2021/03/23 06:53:51;;;;;;;8.80;5.67;;;4.30;99.90;;;;;;5066647;28;20270;-59
2021/03/23 06:56:25;;;;;;;11.40;5.70;;;4.50;99.90;;;;;;5062703;28;20687;-60
2021/03/23 06:59:19;;;;;;;8.10;5.77;;;4.60;99.90;;;;;;5057360;28;20209;-56
2021/03/23 07:01:52;;;;;;;12.43;6.63;;;4.70;99.90;;;;;;5068594;28;20300;-56
2021/03/23 07:04:34;;;;;;;13.57;6.53;;;4.70;99.90;;;;;;5074452;28;20198;-58
2021/03/23 07:07:11;;;;;;;9.20;6.23;;;4.70;99.90;;;;;;5074871;28;20206;-57
2021/03/23 07:09:58;;;;;;;9.37;5.90;;;4.70;99.90;;;;;;5076085;28;20158;-58
2021/03/23 07:12:42;;;;;;;10.87;6.37;;;4.70;99.90;;;;;;5075548;28;20729;-60
2021/03/23 07:15:20;;;;;;;12.00;7.10;;;4.90;99.90;;;;;;5075955;28;20577;-58
2021/03/23 07:17:49;;;;;;;10.53;7.03;;;4.70;99.90;;;;;;5075338;28;20155;-56
2021/03/23 07:20:39;;;;;;;9.77;6.10;;;4.80;99.90;;;;;;5075446;28;20195;-58
2021/03/23 07:23:32;;;;;;;9.73;6.30;;;4.80;99.90;;;;;;5070439;28;20182;-54
2021/03/23 07:26:30;;;;;;;8.40;6.03;;;4.90;99.90;;;;;;5075883;28;20190;-52
2021/03/23 07:29:11;;;;;;;11.63;6.33;;;4.90;99.90;;;;;;5076763;28;20154;-59
2021/03/23 07:31:55;;;;;;;7.90;5.30;;;4.90;99.90;;;;;;5075264;28;20175;-57
2021/03/23 07:34:25;;;;;;;11.17;6.97;;;4.80;99.90;;;;;;5075206;28;20173;-60
2021/03/23 07:37:00;;;;;;;10.77;6.10;;;4.70;99.90;;;;;;5075067;28;20727;-53
2021/03/23 07:39:30;;;;;;;8.53;6.10;;;4.80;99.90;;;;;;5076462;28;20194;-57
2021/03/23 07:42:16;;;;;;;10.60;6.23;;;4.90;99.90;;;;;;5075197;28;20243;-57
2021/03/23 07:44:47;;;;;;;7.90;6.20;;;5.00;99.90;;;;;;5076272;28;20159;-56
2021/03/23 07:47:30;;;;;;;11.27;5.77;;;5.00;99.90;;;;;;5077071;28;20246;-53
2021/03/23 07:50:03;;;;;;;8.93;6.20;;;5.00;99.90;;;;;;5075859;28;20202;-54
2021/03/23 07:52:47;;;;;;;8.93;6.37;;;5.20;99.90;;;;;;5075091;28;20190;-57
2021/03/23 07:55:21;;;;;;;8.97;6.20;;;5.20;99.90;;;;;;5073893;28;20657;-59
2021/03/23 07:58:23;;;;;;;8.57;5.70;;;5.10;99.90;;;;;;5075553;28;20208;-52
2021/03/23 08:01:13;;;;;;;9.57;6.60;;;5.10;99.90;;;;;;5075014;28;20189;-57
2021/03/23 08:03:57;;;;;;;11.40;5.80;;;5.10;99.90;;;;;;5076838;28;20254;-57
2021/03/23 08:06:45;;;;;;;11.27;6.00;;;5.00;99.90;;;;;;5074978;28;20324;-59
2021/03/23 08:09:32;;;;;;;9.83;6.30;;;5.00;99.90;;;;;;5065436;28;20187;-57
2021/03/23 08:12:07;;;;;;;7.83;6.07;;;4.90;99.90;;;;;;5054832;28;20569;-56
2021/03/23 08:14:56;;;;;;;10.60;6.30;;;4.90;99.90;;;;;;5055340;28;20198;-55
2021/03/23 08:17:45;;;;;;;7.63;6.03;;;4.80;99.90;;;;;;5054608;28;20171;-56
2021/03/23 08:21:05;;;;;;;9.63;6.20;;;4.70;99.90;;;;;;5056709;28;20209;-59
2021/03/23 08:23:41;;;;;;;8.87;6.60;;;4.60;99.90;;;;;;5012911;28;20491;-60
2021/03/23 08:26:18;;;;;;;10.13;6.80;;;4.70;99.90;;;;;;5054453;28;20631;-54
2021/03/23 08:28:48;;;;;;;13.33;7.40;;;4.80;99.90;;;;;;5054542;28;20159;-58
2021/03/23 08:31:29;;;;;;;9.07;6.50;;;4.90;99.90;;;;;;5063446;28;20201;-56
2021/03/23 08:34:21;;;;;;;8.37;6.43;;;4.90;99.90;;;;;;5072233;28;20173;-52
2021/03/23 08:37:12;;;;;;;8.87;6.53;;;4.90;99.90;;;;;;5074927;28;20202;-51
2021/03/23 08:40:03;;;;;;;9.73;6.70;;;4.80;99.90;;;;;;5076799;28;20220;-58
2021/03/23 08:42:30;;;;;;;10.57;6.57;;;4.90;99.90;;;;;;5079327;28;20665;-60
2021/03/23 08:45:03;;;;;;;10.77;7.10;;;4.80;99.90;;;;;;5068931;28;20175;-60
2021/03/23 08:47:40;;;;;;;10.97;7.23;;;4.70;99.90;;;;;;5060009;28;20187;-55
2021/03/23 08:50:09;;;;;;;9.60;7.03;;;4.70;99.90;;;;;;5065748;28;20228;-59
2021/03/23 08:52:41;;;;;;;10.23;6.53;;;4.90;99.90;;;;;;5070268;28;20231;-55
2021/03/23 08:55:27;;;;;;;10.33;6.33;;;4.90;99.90;;;;;;5061800;28;20669;-57
2021/03/23 08:58:11;;;;;;;10.43;6.90;;;4.90;99.90;;;;;;5068794;28;20194;-59
2021/03/23 09:00:37;;;;;;;9.33;7.17;;;4.80;99.90;;;;;;5064337;28;20196;-58
2021/03/23 09:03:09;;;;;;;8.23;6.20;;;4.90;99.90;;;;;;5066250;28;20168;-60
2021/03/23 09:05:58;;;;;;;9.60;6.77;;;5.00;99.90;;;;;;5066507;28;20222;-55
2021/03/23 09:08:30;;;;;;;10.40;6.97;;;5.10;99.90;;;;;;5068694;28;20178;-56
2021/03/23 09:11:01;;;;;;;9.50;7.23;;;5.10;99.90;;;;;;5068301;28;20175;-60
2021/03/23 09:13:55;;;;;;;10.77;6.37;;;5.20;99.90;;;;;;5067009;28;20205;-54
2021/03/23 09:17:09;;;;;;;9.47;6.07;;;5.30;99.90;;;;;;5033324;28;20260;-60
2021/03/23 09:19:37;;;;;;;10.77;6.50;;;5.40;99.90;;;;;;5050860;28;20598;-60
2021/03/23 09:22:03;;;;;;;10.20;6.47;;;5.40;99.90;;;;;;5034748;28;20695;-52
2021/03/23 09:24:30;;;;;;;9.43;6.00;;;5.30;99.90;;;;;;5041263;28;20188;-59
2021/03/23 09:26:57;;;;;;;8.97;6.23;;;5.20;99.90;;;;;;5036663;28;20203;-54
2021/03/23 09:29:31;;;;;;;9.37;6.63;;;5.30;99.90;;;;;;5033120;28;20607;-60
2021/03/23 09:31:58;;;;;;;9.60;6.80;;;5.40;99.90;;;;;;5049609;28;20183;-60
2021/03/23 09:35:01;;;;;;;10.27;6.07;;;5.50;99.90;;;;;;5036438;28;20191;-60
2021/03/23 09:37:44;;;;;;;11.00;6.40;;;5.50;99.90;;;;;;5033702;28;20195;-54
2021/03/23 09:40:19;;;;;;;8.17;6.27;;;5.50;99.90;;;;;;5026467;28;20278;-60
2021/03/23 09:43:02;;;;;;;13.27;7.23;;;5.60;99.90;;;;;;5048919;28;20185;-56
2021/03/23 09:45:37;;;;;;;10.70;7.10;;;5.90;99.90;;;;;;5035046;28;20199;-58
2021/03/23 09:48:23;;;;;;;10.43;6.40;;;6.30;99.90;;;;;;5037726;28;20178;-58
2021/03/23 09:50:51;;;;;;;10.53;6.90;;;6.50;99.90;;;;;;5029039;28;20220;-56
2021/03/23 09:53:36;;;;;;;10.97;6.97;;;6.50;99.90;;;;;;5038560;28;20215;-60
2021/03/23 09:56:15;;;;;;;9.20;6.73;;;6.30;99.90;;;;;;5056864;28;20199;-60
2021/03/23 09:58:42;;;;;;;10.60;6.80;;;6.30;99.90;;;;;;5057304;28;20217;-59
2021/03/23 10:01:22;;;;;;;10.93;6.73;;;6.20;99.90;;;;;;5062943;28;20195;-60
2021/03/23 10:03:51;;;;;;;10.53;6.37;;;6.20;99.90;;;;;;5065722;28;20159;-55
2021/03/23 10:06:26;;;;;;;11.13;6.80;;;6.20;99.90;;;;;;5066292;28;20265;-56
2021/03/23 10:09:02;;;;;;;9.07;6.43;;;6.30;99.90;;;;;;5064173;28;20196;-56
2021/03/23 10:11:43;;;;;;;10.83;6.53;;;6.60;99.90;;;;;;5066544;28;20587;-60
2021/03/23 10:14:18;;;;;;;10.20;6.93;;;6.50;99.90;;;;;;5065435;28;20662;-55
2021/03/23 10:16:44;;;;;;;11.90;7.50;;;6.50;99.90;;;;;;5062028;28;20253;-58
2021/03/23 10:19:23;;;;;;;11.60;6.23;;;6.50;99.90;;;;;;5065366;28;20572;-59
2021/03/23 10:21:51;;;;;;;11.23;6.40;;;6.40;99.90;;;;;;5063339;28;20257;-54
2021/03/23 10:24:23;;;;;;;10.33;6.43;;;6.50;99.90;;;;;;5064556;28;20253;-57
2021/03/23 10:26:52;;;;;;;9.97;6.70;;;6.60;99.90;;;;;;5065290;28;20202;-60
2021/03/23 10:29:32;;;;;;;10.43;6.97;;;6.60;99.90;;;;;;5061990;28;20167;-58
2021/03/23 10:32:15;;;;;;;12.00;6.97;;;6.70;99.90;;;;;;5057267;28;20189;-61
2021/03/23 10:35:08;;;;;;;11.10;7.00;;;6.70;99.90;;;;;;5058628;28;20240;-56
2021/03/23 10:37:34;;;;;;;9.70;6.77;;;6.60;99.90;;;;;;5065588;28;20247;-57
2021/03/23 10:40:00;;;;;;;14.17;7.37;;;6.60;99.90;;;;;;5077017;28;20276;-58
2021/03/23 10:42:32;;;;;;;9.93;6.63;;;6.60;99.90;;;;;;5076269;28;20625;-55
2021/03/23 10:45:13;;;;;;;10.77;6.93;;;6.50;99.90;;;;;;5076629;28;20163;-58
2021/03/23 10:47:44;;;;;;;11.37;7.20;;;6.50;99.90;;;;;;5087454;28;20178;-59
2021/03/23 10:50:14;;;;;;;10.60;7.17;;;6.50;99.90;;;;;;5082540;28;20186;-60
2021/03/23 10:52:39;;;;;;;12.70;7.90;;;6.70;99.90;;;;;;5075933;28;20646;-58
2021/03/23 10:55:12;;;;;;;11.60;8.23;;;6.70;99.90;;;;;;5091094;28;20183;-54
2021/03/23 10:57:39;;;;;;;11.47;7.60;;;6.50;99.90;;;;;;5086029;28;20256;-58
2021/03/23 11:00:34;;;;;;;13.43;8.90;;;6.30;99.90;;;;;;5082744;28;20194;-58
2021/03/23 11:03:18;;;;;;;13.27;8.60;;;6.30;99.90;;;;;;5055867;28;20167;-55
2021/03/23 11:05:50;;;;;;;12.47;8.57;;;6.30;99.90;;;;;;5055870;28;20539;-53
2021/03/23 11:08:17;;;;;;;11.70;7.83;;;6.30;99.90;;;;;;5085277;28;20254;-54
2021/03/23 11:10:43;;;;;;;11.57;8.47;;;6.40;99.90;;;;;;5077587;28;20178;-55
2021/03/23 11:13:13;;;;;;;13.27;8.23;;;6.50;99.90;;;;;;5081176;28;20668;-52
2021/03/23 11:15:41;;;;;;;11.30;8.20;;;6.70;99.90;;;;;;5086385;28;20251;-59
2021/03/23 11:18:29;;;;;;;10.20;7.90;;;6.90;99.90;;;;;;5088967;28;20184;-60
2021/03/23 11:20:55;;;;;;;11.77;8.33;;;7.20;99.90;;;;;;5091906;28;20229;-61
2021/03/23 11:23:45;;;;;;;10.97;8.70;;;7.30;99.90;;;;;;5082839;28;20257;-60
2021/03/23 11:26:15;;;;;;;9.17;8.07;;;7.40;99.90;;;;;;5081371;28;20676;-59
2021/03/23 11:28:41;;;;;;;12.23;8.47;;;7.30;99.90;;;;;;5091722;28;20184;-54
2021/03/23 11:31:08;;;;;;;11.47;8.67;;;7.40;99.90;;;;;;5077436;28;20186;-53
2021/03/23 11:33:35;;;;;;;13.10;9.10;;;7.30;99.90;;;;;;5069941;28;20196;-60
2021/03/23 11:36:03;;;;;;;11.50;8.20;;;7.20;99.90;;;;;;5067320;28;20201;-56
2021/03/23 11:38:28;;;;;;;10.30;8.17;;;7.20;99.90;;;;;;5068651;28;20198;-59
2021/03/23 11:40:56;;;;;;;10.77;8.93;;;7.30;99.90;;;;;;5067409;28;20187;-57
2021/03/23 11:43:39;;;;;;;12.03;7.93;;;7.40;99.90;;;;;;5060202;28;20215;-61
2021/03/23 11:46:30;;;;;;;13.03;8.27;;;7.60;99.90;;;;;;5068287;28;20189;-60
2021/03/23 11:49:05;;;;;;;11.60;8.40;;;7.50;99.90;;;;;;5078678;28;20312;-59
2021/03/23 11:51:30;;;;;;;11.13;8.43;;;7.60;99.90;;;;;;5069582;28;20212;-61
2021/03/23 11:53:56;;;;;;;12.07;8.60;;;7.40;99.90;;;;;;5072699;28;20595;-54
2021/03/23 11:56:22;;;;;;;11.90;8.50;;;7.30;99.90;;;;;;5067973;28;20284;-59
2021/03/23 11:58:48;;;;;;;11.57;8.37;;;7.10;99.90;;;;;;5074543;28;20629;-57
2021/03/23 12:01:13;;;;;;;10.83;8.50;;;7.00;99.90;;;;;;5081318;28;20194;-55
2021/03/23 12:03:40;;;;;;;12.83;8.77;;;6.90;99.90;;;;;;5090537;28;20173;-53
2021/03/23 12:06:07;;;;;;;11.57;8.43;;;6.90;99.90;;;;;;5080091;28;20231;-60
2021/03/23 12:08:46;;;;;;;13.33;9.10;;;6.90;99.90;;;;;;5087097;28;20190;-60
2021/03/23 12:11:33;;;;;;;10.47;8.43;;;6.90;99.90;;;;;;5068777;28;20508;-58
2021/03/23 12:14:14;;;;;;;13.77;8.57;;;6.60;99.90;;;;;;5077470;28;20185;-60
2021/03/23 12:16:54;;;;;;;11.27;8.73;;;6.60;99.90;;;;;;5081604;28;20569;-54
2021/03/23 12:19:23;;;;;;;16.23;9.60;;;6.70;99.90;;;;;;5070330;28;20174;-60
2021/03/23 12:21:50;;;;;;;13.83;9.63;;;6.70;99.90;;;;;;5078423;28;20213;-57
2021/03/23 12:24:16;;;;;;;12.13;9.30;;;6.60;99.90;;;;;;5075551;28;20259;-57
2021/03/23 12:26:42;;;;;;;15.97;9.43;;;6.50;99.90;;;;;;5074496;28;20212;-59
2021/03/23 12:29:08;;;;;;;11.80;9.10;;;6.60;99.90;;;;;;5086086;28;20170;-56
2021/03/23 12:31:33;;;;;;;12.77;8.97;;;6.60;99.90;;;;;;5081312;28;20194;-58
2021/03/23 12:33:59;;;;;;;13.67;9.47;;;6.60;99.90;;;;;;5077739;28;20670;-55
2021/03/23 12:36:25;;;;;;;13.70;9.00;;;6.70;99.90;;;;;;5062489;28;20250;-56
2021/03/23 12:38:51;;;;;;;11.07;8.70;;;6.60;99.90;;;;;;5069144;28;20245;-55
2021/03/23 12:41:27;;;;;;;12.00;9.07;;;6.60;99.90;;;;;;5063941;28;20206;-60
2021/03/23 12:43:53;;;;;;;14.37;9.50;;;6.70;99.90;;;;;;5084418;28;20193;-58
2021/03/23 12:46:19;;;;;;;14.03;8.93;;;6.60;99.90;;;;;;5054921;28;20223;-58
2021/03/23 12:48:46;;;;;;;12.03;9.63;;;6.60;99.90;;;;;;5062259;28;20187;-62
2021/03/23 12:51:25;;;;;;;11.00;8.73;;;6.60;99.90;;;;;;5073671;28;20205;-58
2021/03/23 12:53:51;;;;;;;12.67;9.13;;;6.50;99.90;;;;;;5065763;28;20261;-57
2021/03/23 12:56:20;;;;;;;13.63;9.10;;;6.40;99.90;;;;;;5052625;28;20195;-59
2021/03/23 12:58:46;;;;;;;13.20;9.73;;;6.40;99.90;;;;;;5054162;28;20365;-62
2021/03/23 13:01:13;;;;;;;14.07;9.63;;;6.40;99.90;;;;;;5052925;28;20214;-58
2021/03/23 13:03:39;;;;;;;13.03;9.50;;;6.40;99.90;;;;;;5053872;28;20213;-59
2021/03/23 13:06:08;;;;;;;12.43;9.40;;;6.40;99.90;;;;;;5053878;28;20554;-57
2021/03/23 13:08:36;;;;;;;14.00;9.40;;;6.40;99.90;;;;;;5055652;28;20573;-61
2021/03/23 13:11:05;;;;;;;12.63;9.33;;;6.50;99.90;;;;;;5065190;28;20194;-61
2021/03/23 13:13:54;;;;;;;12.67;9.20;;;6.50;99.90;;;;;;5053884;28;20211;-61
2021/03/23 13:16:20;;;;;;;11.77;8.37;;;6.50;99.90;;;;;;5044142;28;20215;-58